UAL1759 KOMA-KORD
Flight info
| Callsign | UAL1759 |
|---|---|
| Flight time | 0h 58m |
| Altitude | 37000 |
| Route | DCT FOD DCT MYRRS FYTTE7 |
| Aircraft | B738/M-SDE2E3FGHIRWXY/LB1 |
Departure
| Time | 2026-04-22 19:04 |
|---|---|
| Airport | Eppley Airfield (KOMA) |
Arrival
| Time | 2026-04-22 20:03 |
|---|---|
| Airport | Chicago O'Hare International Airport (KORD) |
| Time | Latitude | Longitude | Altitude | Speed | Heading |
|---|---|---|---|---|---|
| 2026-04-22 18:19 | 41.30068 | -95.89798 | 985 ft | 0 kts | 302° |
| 2026-04-22 18:54 | 41.30048 | -95.89800 | 989 ft | 0 kts | 54° |
| 2026-04-22 19:01 | 41.30047 | -95.89793 | 947 ft | 2 kts | 103° |
| 2026-04-22 19:01 | 41.30038 | -95.89752 | 985 ft | 7 kts | 107° |
| 2026-04-22 19:01 | 41.30010 | -95.89663 | 981 ft | 16 kts | 97° |
| 2026-04-22 19:01 | 41.30079 | -95.89588 | 985 ft | 14 kts | 22° |
| 2026-04-22 19:02 | 41.30190 | -95.89598 | 986 ft | 20 kts | 352° |
| 2026-04-22 19:02 | 41.30366 | -95.89598 | 989 ft | 31 kts | 359° |
| 2026-04-22 19:02 | 41.30597 | -95.89603 | 990 ft | 34 kts | 359° |
| 2026-04-22 19:02 | 41.30807 | -95.89709 | 989 ft | 32 kts | 322° |
| 2026-04-22 19:03 | 41.30984 | -95.89874 | 989 ft | 31 kts | 328° |
| 2026-04-22 19:03 | 41.31152 | -95.90036 | 989 ft | 29 kts | 322° |
| 2026-04-22 19:03 | 41.31310 | -95.90098 | 995 ft | 24 kts | 50° |
| 2026-04-22 19:03 | 41.31216 | -95.89918 | 988 ft | 46 kts | 141° |
| 2026-04-22 19:04 | 41.30757 | -95.89473 | 991 ft | 112 kts | 144° |
| 2026-04-22 19:04 | 41.29989 | -95.88757 | 1165 ft | 146 kts | 147° |
| 2026-04-22 19:04 | 41.29101 | -95.87899 | 1506 ft | 172 kts | 143° |
| 2026-04-22 19:04 | 41.28129 | -95.86775 | 1862 ft | 198 kts | 131° |
| 2026-04-22 19:05 | 41.27525 | -95.84983 | 2086 ft | 228 kts | 111° |
| 2026-04-22 19:05 | 41.27030 | -95.82872 | 2264 ft | 251 kts | 111° |
| 2026-04-22 19:05 | 41.27057 | -95.80473 | 2724 ft | 271 kts | 72° |
| 2026-04-22 19:05 | 41.28219 | -95.78506 | 3761 ft | 277 kts | 39° |
| 2026-04-22 19:06 | 41.29790 | -95.77009 | 4664 ft | 279 kts | 38° |
| 2026-04-22 19:06 | 41.31383 | -95.75449 | 5293 ft | 291 kts | 38° |
| 2026-04-22 19:06 | 41.33017 | -95.73803 | 6022 ft | 297 kts | 39° |
| 2026-04-22 19:07 | 41.36328 | -95.70353 | 7490 ft | 305 kts | 39° |
| 2026-04-22 19:07 | 41.37996 | -95.68571 | 8221 ft | 309 kts | 40° |
| 2026-04-22 19:07 | 41.39667 | -95.66768 | 9085 ft | 309 kts | 40° |
| 2026-04-22 19:07 | 41.41327 | -95.64961 | 9924 ft | 308 kts | 40° |
| 2026-04-22 19:08 | 41.42979 | -95.63157 | 10472 ft | 320 kts | 40° |
| 2026-04-22 19:08 | 41.44758 | -95.61207 | 10672 ft | 343 kts | 40° |
| 2026-04-22 19:08 | 41.46657 | -95.59114 | 10873 ft | 365 kts | 40° |
| 2026-04-22 19:08 | 41.48664 | -95.56906 | 11076 ft | 384 kts | 40° |
| 2026-04-22 19:09 | 41.50746 | -95.54606 | 11602 ft | 390 kts | 40° |
| 2026-04-22 19:09 | 41.52850 | -95.52272 | 12195 ft | 396 kts | 41° |
| 2026-04-22 19:09 | 41.54968 | -95.49920 | 12953 ft | 397 kts | 41° |
| 2026-04-22 19:09 | 41.57091 | -95.47570 | 13737 ft | 397 kts | 41° |
| 2026-04-22 19:10 | 41.59225 | -95.45198 | 14409 ft | 399 kts | 41° |
| 2026-04-22 19:10 | 41.61373 | -95.42813 | 15037 ft | 403 kts | 40° |
| 2026-04-22 19:10 | 41.63539 | -95.40406 | 15701 ft | 407 kts | 40° |
| 2026-04-22 19:10 | 41.65737 | -95.37962 | 16240 ft | 413 kts | 40° |
| 2026-04-22 19:11 | 41.67968 | -95.35479 | 16765 ft | 420 kts | 40° |
| 2026-04-22 19:11 | 41.70209 | -95.32983 | 17562 ft | 419 kts | 39° |
| 2026-04-22 19:11 | 41.72433 | -95.30501 | 18476 ft | 413 kts | 39° |
| 2026-04-22 19:11 | 41.74615 | -95.28061 | 19032 ft | 416 kts | 39° |
| 2026-04-22 19:12 | 41.76887 | -95.25518 | 19450 ft | 423 kts | 39° |
| 2026-04-22 19:12 | 41.79161 | -95.22971 | 19874 ft | 430 kts | 39° |
| 2026-04-22 19:12 | 41.81459 | -95.20393 | 20422 ft | 432 kts | 39° |
| 2026-04-22 19:12 | 41.83775 | -95.17795 | 20950 ft | 435 kts | 38° |
| 2026-04-22 19:13 | 41.86111 | -95.15168 | 21350 ft | 440 kts | 38° |
| 2026-04-22 19:13 | 41.88437 | -95.12553 | 21836 ft | 444 kts | 38° |
| 2026-04-22 19:13 | 41.90809 | -95.09886 | 22319 ft | 447 kts | 39° |
| 2026-04-22 19:13 | 41.93203 | -95.07197 | 22719 ft | 451 kts | 38° |
| 2026-04-22 19:14 | 41.95618 | -95.04471 | 23148 ft | 455 kts | 38° |
| 2026-04-22 19:14 | 41.98054 | -95.01716 | 23560 ft | 459 kts | 38° |
| 2026-04-22 19:14 | 42.00496 | -94.98956 | 23955 ft | 461 kts | 38° |
| 2026-04-22 19:14 | 42.02962 | -94.96170 | 24247 ft | 466 kts | 37° |
| 2026-04-22 19:15 | 42.04635 | -94.94273 | 24520 ft | 466 kts | 38° |
| 2026-04-22 19:15 | 42.07925 | -94.90541 | 25047 ft | 469 kts | 38° |
| 2026-04-22 19:15 | 42.10431 | -94.87695 | 25351 ft | 473 kts | 38° |
| 2026-04-22 19:15 | 42.12955 | -94.84828 | 25639 ft | 476 kts | 38° |
| 2026-04-22 19:16 | 42.15496 | -94.81939 | 26016 ft | 478 kts | 37° |
| 2026-04-22 19:16 | 42.18047 | -94.79035 | 26357 ft | 480 kts | 38° |
| 2026-04-22 19:16 | 42.20607 | -94.76117 | 26687 ft | 483 kts | 38° |
| 2026-04-22 19:16 | 42.23177 | -94.73186 | 26995 ft | 486 kts | 38° |
| 2026-04-22 19:17 | 42.25765 | -94.70230 | 27300 ft | 488 kts | 38° |
| 2026-04-22 19:17 | 42.28364 | -94.67258 | 27585 ft | 491 kts | 38° |
| 2026-04-22 19:17 | 42.30971 | -94.64273 | 27876 ft | 493 kts | 38° |
| 2026-04-22 19:17 | 42.33597 | -94.61262 | 28163 ft | 495 kts | 38° |
| 2026-04-22 19:18 | 42.36226 | -94.58244 | 28493 ft | 496 kts | 38° |
| 2026-04-22 19:18 | 42.38853 | -94.55223 | 28970 ft | 494 kts | 37° |
| 2026-04-22 19:18 | 42.41463 | -94.52219 | 29491 ft | 491 kts | 37° |
| 2026-04-22 19:18 | 42.44061 | -94.49224 | 29912 ft | 491 kts | 37° |
| 2026-04-22 19:19 | 42.46655 | -94.46233 | 30212 ft | 492 kts | 37° |
| 2026-04-22 19:19 | 42.49270 | -94.43212 | 30534 ft | 492 kts | 37° |
| 2026-04-22 19:19 | 42.51874 | -94.40199 | 30896 ft | 492 kts | 37° |
| 2026-04-22 19:19 | 42.54471 | -94.37193 | 31273 ft | 490 kts | 37° |
| 2026-04-22 19:20 | 42.57057 | -94.34178 | 31633 ft | 490 kts | 40° |
| 2026-04-22 19:20 | 42.59229 | -94.30584 | 31852 ft | 499 kts | 59° |
| 2026-04-22 19:20 | 42.60568 | -94.26231 | 32186 ft | 502 kts | 74° |
| 2026-04-22 19:20 | 42.61050 | -94.21545 | 32514 ft | 503 kts | 90° |
| 2026-04-22 19:21 | 42.60943 | -94.16814 | 32883 ft | 502 kts | 92° |
| 2026-04-22 19:21 | 42.60759 | -94.12081 | 33152 ft | 503 kts | 93° |
| 2026-04-22 19:21 | 42.60554 | -94.07328 | 33409 ft | 504 kts | 93° |
| 2026-04-22 19:21 | 42.60354 | -94.02571 | 33708 ft | 504 kts | 93° |
| 2026-04-22 19:22 | 42.60168 | -93.97821 | 34021 ft | 504 kts | 92° |
| 2026-04-22 19:22 | 42.59999 | -93.93135 | 34297 ft | 503 kts | 92° |
| 2026-04-22 19:22 | 42.59838 | -93.88391 | 34592 ft | 502 kts | 92° |
| 2026-04-22 19:22 | 42.59681 | -93.83661 | 34888 ft | 501 kts | 92° |
| 2026-04-22 19:23 | 42.59525 | -93.78931 | 35164 ft | 501 kts | 92° |
| 2026-04-22 19:23 | 42.59368 | -93.74207 | 35419 ft | 501 kts | 92° |
| 2026-04-22 19:23 | 42.59209 | -93.69492 | 35692 ft | 500 kts | 92° |
| 2026-04-22 19:23 | 42.59047 | -93.64775 | 35989 ft | 499 kts | 92° |
| 2026-04-22 19:24 | 42.58882 | -93.60079 | 36308 ft | 497 kts | 92° |
| 2026-04-22 19:24 | 42.58716 | -93.55401 | 36633 ft | 495 kts | 92° |
| 2026-04-22 19:24 | 42.58548 | -93.50742 | 36907 ft | 494 kts | 92° |
| 2026-04-22 19:25 | 42.58206 | -93.41363 | 36961 ft | 500 kts | 92° |
| 2026-04-22 19:25 | 42.57854 | -93.31951 | 36952 ft | 497 kts | 92° |
| 2026-04-22 19:26 | 42.57497 | -93.22635 | 36957 ft | 493 kts | 92° |
| 2026-04-22 19:26 | 42.57135 | -93.13359 | 36952 ft | 491 kts | 92° |
| 2026-04-22 19:27 | 42.56768 | -93.04124 | 36954 ft | 490 kts | 92° |
| 2026-04-22 19:27 | 42.56394 | -92.94902 | 36957 ft | 490 kts | 92° |
| 2026-04-22 19:28 | 42.56011 | -92.85657 | 36943 ft | 491 kts | 92° |
| 2026-04-22 19:28 | 42.55620 | -92.76398 | 36948 ft | 492 kts | 92° |
| 2026-04-22 19:29 | 42.55220 | -92.67122 | 36961 ft | 493 kts | 92° |
| 2026-04-22 19:29 | 42.54812 | -92.57828 | 36957 ft | 494 kts | 92° |
| 2026-04-22 19:30 | 42.54467 | -92.50085 | 36955 ft | 495 kts | 92° |
| 2026-04-22 19:30 | 42.53974 | -92.39238 | 36952 ft | 496 kts | 92° |
| 2026-04-22 19:31 | 42.53541 | -92.29909 | 36953 ft | 496 kts | 92° |
| 2026-04-22 19:31 | 42.53099 | -92.20572 | 36953 ft | 496 kts | 91° |
| 2026-04-22 19:32 | 42.52650 | -92.11251 | 36983 ft | 495 kts | 91° |
| 2026-04-22 19:32 | 42.52303 | -92.01940 | 36989 ft | 493 kts | 88° |
| 2026-04-22 19:33 | 42.52367 | -91.94152 | 36995 ft | 492 kts | 86° |
| 2026-04-22 19:33 | 42.52517 | -91.84951 | 36978 ft | 492 kts | 86° |
| 2026-04-22 19:34 | 42.52603 | -91.75683 | 36975 ft | 491 kts | 87° |
| 2026-04-22 19:34 | 42.52643 | -91.66429 | 36975 ft | 491 kts | 87° |
| 2026-04-22 19:35 | 42.52673 | -91.57156 | 36981 ft | 491 kts | 87° |
| 2026-04-22 19:35 | 42.52699 | -91.47912 | 36992 ft | 490 kts | 87° |
| 2026-04-22 19:36 | 42.52721 | -91.38675 | 36984 ft | 490 kts | 87° |
| 2026-04-22 19:36 | 42.52732 | -91.29438 | 36985 ft | 490 kts | 87° |
| 2026-04-22 19:37 | 42.52734 | -91.20189 | 36993 ft | 490 kts | 87° |
| 2026-04-22 19:37 | 42.52726 | -91.10958 | 37001 ft | 490 kts | 87° |
| 2026-04-22 19:38 | 42.52710 | -91.01720 | 36994 ft | 490 kts | 87° |
| 2026-04-22 19:38 | 42.52686 | -90.92494 | 37014 ft | 490 kts | 87° |
| 2026-04-22 19:39 | 42.52657 | -90.83251 | 37017 ft | 490 kts | 87° |
| 2026-04-22 19:39 | 42.52616 | -90.74013 | 37030 ft | 490 kts | 87° |
| 2026-04-22 19:40 | 42.52564 | -90.64754 | 36555 ft | 496 kts | 87° |
| 2026-04-22 19:40 | 42.52534 | -90.60099 | 36020 ft | 493 kts | 87° |
| 2026-04-22 19:40 | 42.52501 | -90.55453 | 35384 ft | 493 kts | 87° |
| 2026-04-22 19:40 | 42.52466 | -90.50797 | 34736 ft | 494 kts | 87° |
| 2026-04-22 19:41 | 42.52429 | -90.46139 | 34070 ft | 495 kts | 88° |
| 2026-04-22 19:41 | 42.52388 | -90.41457 | 33271 ft | 497 kts | 88° |
| 2026-04-22 19:41 | 42.52347 | -90.36771 | 32534 ft | 497 kts | 88° |
| 2026-04-22 19:41 | 42.52305 | -90.32084 | 31789 ft | 497 kts | 88° |
| 2026-04-22 19:42 | 42.52268 | -90.27405 | 31146 ft | 494 kts | 88° |
| 2026-04-22 19:42 | 42.52238 | -90.22753 | 30391 ft | 494 kts | 88° |
| 2026-04-22 19:42 | 42.52210 | -90.18086 | 29511 ft | 495 kts | 88° |
| 2026-04-22 19:42 | 42.52180 | -90.13480 | 28587 ft | 495 kts | 88° |
| 2026-04-22 19:43 | 42.52108 | -90.04132 | 27071 ft | 487 kts | 88° |
| 2026-04-22 19:43 | 42.52068 | -89.99623 | 26424 ft | 482 kts | 88° |
| 2026-04-22 19:43 | 42.52026 | -89.95092 | 25792 ft | 477 kts | 88° |
| 2026-04-22 19:44 | 42.51982 | -89.90619 | 25167 ft | 472 kts | 88° |
| 2026-04-22 19:44 | 42.51939 | -89.86194 | 24545 ft | 468 kts | 88° |
| 2026-04-22 19:44 | 42.51895 | -89.81801 | 23908 ft | 464 kts | 88° |
| 2026-04-22 19:44 | 42.51823 | -89.77442 | 23213 ft | 462 kts | 90° |
| 2026-04-22 19:45 | 42.51446 | -89.73145 | 22658 ft | 456 kts | 96° |
| 2026-04-22 19:45 | 42.50911 | -89.68927 | 22009 ft | 452 kts | 97° |
| 2026-04-22 19:45 | 42.50350 | -89.64757 | 21393 ft | 447 kts | 97° |
| 2026-04-22 19:45 | 42.49804 | -89.60634 | 20783 ft | 443 kts | 97° |
| 2026-04-22 19:46 | 42.49280 | -89.56547 | 20176 ft | 439 kts | 97° |
| 2026-04-22 19:46 | 42.48774 | -89.52490 | 19679 ft | 433 kts | 97° |
| 2026-04-22 19:46 | 42.48287 | -89.48546 | 19514 ft | 418 kts | 97° |
| 2026-04-22 19:46 | 42.47814 | -89.44713 | 19327 ft | 406 kts | 97° |
| 2026-04-22 19:47 | 42.47355 | -89.41000 | 19149 ft | 394 kts | 97° |
| 2026-04-22 19:47 | 42.46907 | -89.37366 | 18752 ft | 391 kts | 97° |
| 2026-04-22 19:47 | 42.46465 | -89.33750 | 18336 ft | 388 kts | 97° |
| 2026-04-22 19:47 | 42.46025 | -89.30157 | 17827 ft | 386 kts | 97° |
| 2026-04-22 19:48 | 42.45585 | -89.26576 | 17368 ft | 383 kts | 97° |
| 2026-04-22 19:48 | 42.45147 | -89.23036 | 16927 ft | 381 kts | 97° |
| 2026-04-22 19:48 | 42.44714 | -89.19545 | 16491 ft | 378 kts | 97° |
| 2026-04-22 19:48 | 42.44281 | -89.16053 | 16045 ft | 375 kts | 97° |
| 2026-04-22 19:49 | 42.43849 | -89.12580 | 15618 ft | 372 kts | 97° |
| 2026-04-22 19:49 | 42.43408 | -89.09096 | 15203 ft | 370 kts | 97° |
| 2026-04-22 19:49 | 42.42968 | -89.05674 | 14791 ft | 368 kts | 97° |
| 2026-04-22 19:49 | 42.42541 | -89.02312 | 14362 ft | 366 kts | 97° |
| 2026-04-22 19:50 | 42.42110 | -88.98876 | 13955 ft | 364 kts | 96° |
| 2026-04-22 19:50 | 42.41696 | -88.95563 | 13500 ft | 362 kts | 97° |
| 2026-04-22 19:50 | 42.41276 | -88.92227 | 13235 ft | 354 kts | 97° |
| 2026-04-22 19:50 | 42.40865 | -88.88984 | 13030 ft | 345 kts | 97° |
| 2026-04-22 19:51 | 42.40459 | -88.85794 | 12624 ft | 343 kts | 97° |
| 2026-04-22 19:51 | 42.40052 | -88.82618 | 12249 ft | 340 kts | 97° |
| 2026-04-22 19:51 | 42.39649 | -88.79478 | 11894 ft | 338 kts | 97° |
| 2026-04-22 19:51 | 42.39248 | -88.76363 | 11559 ft | 334 kts | 97° |
| 2026-04-22 19:52 | 42.38852 | -88.73289 | 11330 ft | 327 kts | 97° |
| 2026-04-22 19:52 | 42.38465 | -88.70292 | 11148 ft | 319 kts | 97° |
| 2026-04-22 19:52 | 42.37828 | -88.67461 | 10983 ft | 314 kts | 118° |
| 2026-04-22 19:52 | 42.36459 | -88.65201 | 10773 ft | 310 kts | 139° |
| 2026-04-22 19:53 | 42.34767 | -88.63431 | 10567 ft | 305 kts | 143° |
| 2026-04-22 19:53 | 42.33045 | -88.61775 | 10340 ft | 303 kts | 144° |
| 2026-04-22 19:53 | 42.31330 | -88.60150 | 10127 ft | 299 kts | 144° |
| 2026-04-22 19:53 | 42.29635 | -88.58540 | 9889 ft | 296 kts | 144° |
| 2026-04-22 19:54 | 42.27966 | -88.56945 | 9652 ft | 293 kts | 144° |
| 2026-04-22 19:54 | 42.26314 | -88.55357 | 9425 ft | 289 kts | 144° |
| 2026-04-22 19:54 | 42.24688 | -88.53789 | 9200 ft | 286 kts | 144° |
| 2026-04-22 19:54 | 42.23077 | -88.52232 | 8972 ft | 284 kts | 143° |
| 2026-04-22 19:55 | 42.21482 | -88.50688 | 8773 ft | 281 kts | 143° |
| 2026-04-22 19:55 | 42.19890 | -88.49147 | 8578 ft | 282 kts | 143° |
| 2026-04-22 19:55 | 42.18292 | -88.47600 | 8364 ft | 284 kts | 144° |
| 2026-04-22 19:55 | 42.16689 | -88.46046 | 8157 ft | 283 kts | 144° |
| 2026-04-22 19:56 | 42.15096 | -88.44506 | 7934 ft | 282 kts | 144° |
| 2026-04-22 19:56 | 42.13507 | -88.42969 | 7725 ft | 280 kts | 144° |
| 2026-04-22 19:56 | 42.11926 | -88.41442 | 7523 ft | 279 kts | 144° |
| 2026-04-22 19:56 | 42.10350 | -88.39920 | 7309 ft | 278 kts | 144° |
| 2026-04-22 19:57 | 42.08777 | -88.38403 | 7097 ft | 277 kts | 144° |
| 2026-04-22 19:57 | 42.07214 | -88.36894 | 6890 ft | 276 kts | 144° |
| 2026-04-22 19:57 | 42.05659 | -88.35395 | 6689 ft | 274 kts | 144° |
| 2026-04-22 19:57 | 42.04110 | -88.33902 | 6490 ft | 273 kts | 144° |
| 2026-04-22 19:58 | 42.02571 | -88.32419 | 6277 ft | 271 kts | 144° |
| 2026-04-22 19:58 | 42.01103 | -88.30837 | 6040 ft | 271 kts | 130° |
| 2026-04-22 19:58 | 42.00332 | -88.28568 | 5743 ft | 270 kts | 97° |
| 2026-04-22 19:58 | 42.00253 | -88.26045 | 5407 ft | 271 kts | 88° |
| 2026-04-22 19:59 | 42.00309 | -88.23495 | 5059 ft | 274 kts | 88° |
| 2026-04-22 20:00 | 42.00303 | -88.08769 | 3003 ft | 247 kts | 89° |
| 2026-04-22 20:00 | 42.00298 | -88.06510 | 2666 ft | 240 kts | 89° |
| 2026-04-22 20:01 | 42.00294 | -88.04348 | 2396 ft | 223 kts | 89° |
| 2026-04-22 20:01 | 42.00292 | -88.02310 | 2093 ft | 207 kts | 88° |
| 2026-04-22 20:01 | 42.00290 | -88.00461 | 1836 ft | 194 kts | 88° |
| 2026-04-22 20:01 | 42.00287 | -87.98691 | 1561 ft | 179 kts | 87° |
| 2026-04-22 20:02 | 42.00285 | -87.97121 | 1382 ft | 159 kts | 88° |
| 2026-04-22 20:02 | 42.00285 | -87.95687 | 1160 ft | 149 kts | 89° |
| 2026-04-22 20:02 | 42.00283 | -87.94274 | 967 ft | 153 kts | 86° |
| 2026-04-22 20:02 | 42.00284 | -87.92871 | 752 ft | 146 kts | 85° |
| 2026-04-22 20:03 | 42.00285 | -87.91567 | 669 ft | 130 kts | 85° |
| 2026-04-22 20:03 | 42.00283 | -87.91673 | 668 ft | 1 kts | 84° |
| 2026-04-22 20:03 | 42.00282 | -87.91269 | 664 ft | 73 kts | 91° |
| 2026-04-22 20:03 | 42.00285 | -87.90631 | 670 ft | 65 kts | 91° |
| 2026-04-22 20:04 | 42.00202 | -87.90083 | 659 ft | 55 kts | 127° |
| 2026-04-22 20:04 | 41.99879 | -87.89921 | 670 ft | 49 kts | 186° |
| 2026-04-22 20:04 | 41.99581 | -87.90046 | 677 ft | 40 kts | 169° |
| 2026-04-22 20:04 | 41.99307 | -87.90041 | 671 ft | 40 kts | 177° |
| 2026-04-22 20:05 | 41.99031 | -87.90042 | 663 ft | 41 kts | 179° |
| 2026-04-22 20:05 | 41.98774 | -87.90043 | 665 ft | 35 kts | 179° |
| 2026-04-22 20:05 | 41.98534 | -87.90041 | 663 ft | 34 kts | 180° |
| 2026-04-22 20:05 | 41.98340 | -87.90039 | 663 ft | 12 kts | 191° |
| 2026-04-22 20:06 | 41.98293 | -87.90129 | 661 ft | 13 kts | 261° |
| 2026-04-22 20:06 | 41.98290 | -87.90251 | 660 ft | 13 kts | 271° |
| 2026-04-22 20:06 | 41.98291 | -87.90370 | 660 ft | 13 kts | 271° |
| 2026-04-22 20:06 | 41.98289 | -87.90487 | 657 ft | 5 kts | 267° |
| 2026-04-22 20:07 | 41.98290 | -87.90505 | 657 ft | 0 kts | 272° |
| 2026-04-22 20:07 | 41.98290 | -87.90509 | 657 ft | 0 kts | 271° |
| 2026-04-22 20:07 | 41.98290 | -87.90516 | 657 ft | 2 kts | 271° |
| 2026-04-22 20:08 | 41.98290 | -87.90539 | 656 ft | 3 kts | 271° |
| 2026-04-22 20:08 | 41.98290 | -87.90547 | 656 ft | 0 kts | 271° |
| 2026-04-22 20:10 | 41.98291 | -87.90565 | 656 ft | 9 kts | 271° |
| 2026-04-22 20:11 | 41.98270 | -87.90766 | 659 ft | 21 kts | 252° |
| 2026-04-22 20:11 | 41.98216 | -87.90797 | 660 ft | 19 kts | 175° |
| 2026-04-22 20:11 | 41.98100 | -87.90835 | 661 ft | 16 kts | 256° |
| 2026-04-22 20:11 | 41.98099 | -87.90918 | 662 ft | 2 kts | 279° |
| 2026-04-22 20:12 | 41.98099 | -87.90921 | 662 ft | 0 kts | 278° |